sensor_id;sensor_type;location;lat;lon;timestamp;P1;durP1;ratioP1;P2;durP2;ratioP2
30181;SDS011;16990;49.056;9.240;2022-11-09T00:01:22;7.13;;;4.35;;
30181;SDS011;16990;49.056;9.240;2022-11-09T00:03:52;7.85;;;4.03;;
30181;SDS011;16990;49.056;9.240;2022-11-09T00:06:20;8.65;;;4.35;;
30181;SDS011;16990;49.056;9.240;2022-11-09T00:08:47;7.28;;;3.50;;
30181;SDS011;16990;49.056;9.240;2022-11-09T00:11:14;6.75;;;3.67;;
30181;SDS011;16990;49.056;9.240;2022-11-09T00:13:42;15.23;;;3.95;;
30181;SDS011;16990;49.056;9.240;2022-11-09T00:16:11;8.43;;;3.47;;
30181;SDS011;16990;49.056;9.240;2022-11-09T00:18:39;7.22;;;4.32;;
30181;SDS011;16990;49.056;9.240;2022-11-09T00:21:12;7.85;;;3.65;;
30181;SDS011;16990;49.056;9.240;2022-11-09T00:23:40;5.72;;;3.95;;
30181;SDS011;16990;49.056;9.240;2022-11-09T00:26:08;5.88;;;3.80;;
30181;SDS011;16990;49.056;9.240;2022-11-09T00:28:35;7.57;;;4.20;;
30181;SDS011;16990;49.056;9.240;2022-11-09T00:31:03;6.47;;;4.43;;
30181;SDS011;16990;49.056;9.240;2022-11-09T00:33:33;6.22;;;4.00;;
30181;SDS011;16990;49.056;9.240;2022-11-09T00:36:01;5.47;;;3.65;;
30181;SDS011;16990;49.056;9.240;2022-11-09T00:38:31;6.88;;;3.45;;
30181;SDS011;16990;49.056;9.240;2022-11-09T00:40:59;16.50;;;3.55;;
30181;SDS011;16990;49.056;9.240;2022-11-09T00:43:26;7.07;;;3.42;;
30181;SDS011;16990;49.056;9.240;2022-11-09T00:45:53;6.10;;;3.53;;
30181;SDS011;16990;49.056;9.240;2022-11-09T00:48:20;8.82;;;3.75;;
30181;SDS011;16990;49.056;9.240;2022-11-09T00:50:49;7.00;;;3.53;;
30181;SDS011;16990;49.056;9.240;2022-11-09T00:53:16;5.75;;;3.70;;
30181;SDS011;16990;49.056;9.240;2022-11-09T00:55:51;7.13;;;4.13;;
30181;SDS011;16990;49.056;9.240;2022-11-09T00:58:19;10.85;;;3.90;;
30181;SDS011;16990;49.056;9.240;2022-11-09T01:00:46;10.27;;;4.13;;
30181;SDS011;16990;49.056;9.240;2022-11-09T01:03:12;6.65;;;3.95;;
30181;SDS011;16990;49.056;9.240;2022-11-09T01:05:39;8.05;;;3.85;;
30181;SDS011;16990;49.056;9.240;2022-11-09T01:08:07;8.68;;;3.80;;
30181;SDS011;16990;49.056;9.240;2022-11-09T01:10:34;10.05;;;3.60;;
30181;SDS011;16990;49.056;9.240;2022-11-09T01:13:01;13.00;;;4.18;;
30181;SDS011;16990;49.056;9.240;2022-11-09T01:15:27;8.48;;;3.53;;
30181;SDS011;16990;49.056;9.240;2022-11-09T01:17:54;4.38;;;3.05;;
30181;SDS011;16990;49.056;9.240;2022-11-09T01:20:21;7.47;;;3.47;;
30181;SDS011;16990;49.056;9.240;2022-11-09T01:22:47;7.20;;;3.47;;
30181;SDS011;16990;49.056;9.240;2022-11-09T01:25:15;7.72;;;3.47;;
30181;SDS011;16990;49.056;9.240;2022-11-09T01:27:43;8.02;;;3.72;;
30181;SDS011;16990;49.056;9.240;2022-11-09T01:30:10;8.95;;;3.05;;
30181;SDS011;16990;49.056;9.240;2022-11-09T01:32:38;5.45;;;3.00;;
30181;SDS011;16990;49.056;9.240;2022-11-09T01:35:05;5.00;;;3.75;;
30181;SDS011;16990;49.056;9.240;2022-11-09T01:37:32;6.55;;;3.53;;
30181;SDS011;16990;49.056;9.240;2022-11-09T01:39:58;4.70;;;2.78;;
30181;SDS011;16990;49.056;9.240;2022-11-09T01:42:27;10.68;;;3.60;;
30181;SDS011;16990;49.056;9.240;2022-11-09T01:47:52;9.65;;;4.45;;
30181;SDS011;16990;49.056;9.240;2022-11-09T01:50:24;8.10;;;2.70;;
30181;SDS011;16990;49.056;9.240;2022-11-09T01:52:56;8.02;;;3.15;;
30181;SDS011;16990;49.056;9.240;2022-11-09T01:55:25;5.82;;;3.53;;
30181;SDS011;16990;49.056;9.240;2022-11-09T01:57:55;9.35;;;3.40;;
30181;SDS011;16990;49.056;9.240;2022-11-09T02:00:25;7.43;;;3.03;;
30181;SDS011;16990;49.056;9.240;2022-11-09T02:02:54;9.90;;;3.85;;
30181;SDS011;16990;49.056;9.240;2022-11-09T02:05:25;6.90;;;3.30;;
30181;SDS011;16990;49.056;9.240;2022-11-09T02:07:55;7.38;;;3.47;;
30181;SDS011;16990;49.056;9.240;2022-11-09T02:10:24;5.68;;;3.10;;
30181;SDS011;16990;49.056;9.240;2022-11-09T02:12:56;5.90;;;3.70;;
30181;SDS011;16990;49.056;9.240;2022-11-09T02:15:24;4.78;;;3.50;;
30181;SDS011;16990;49.056;9.240;2022-11-09T02:17:52;10.98;;;5.18;;
30181;SDS011;16990;49.056;9.240;2022-11-09T02:20:21;7.00;;;3.67;;
30181;SDS011;16990;49.056;9.240;2022-11-09T02:22:49;10.75;;;3.45;;
30181;SDS011;16990;49.056;9.240;2022-11-09T02:25:16;10.30;;;4.10;;
30181;SDS011;16990;49.056;9.240;2022-11-09T02:27:43;7.50;;;4.18;;
30181;SDS011;16990;49.056;9.240;2022-11-09T02:30:11;6.57;;;4.43;;
30181;SDS011;16990;49.056;9.240;2022-11-09T02:32:39;7.65;;;4.50;;
30181;SDS011;16990;49.056;9.240;2022-11-09T02:35:06;8.48;;;3.55;;
30181;SDS011;16990;49.056;9.240;2022-11-09T02:37:36;7.15;;;4.43;;
30181;SDS011;16990;49.056;9.240;2022-11-09T02:40:06;7.75;;;4.38;;
30181;SDS011;16990;49.056;9.240;2022-11-09T02:42:38;7.82;;;4.40;;
30181;SDS011;16990;49.056;9.240;2022-11-09T02:45:05;8.45;;;4.32;;
30181;SDS011;16990;49.056;9.240;2022-11-09T02:47:32;7.00;;;3.67;;
30181;SDS011;16990;49.056;9.240;2022-11-09T02:49:59;6.53;;;4.40;;
30181;SDS011;16990;49.056;9.240;2022-11-09T02:52:26;6.00;;;3.83;;
30181;SDS011;16990;49.056;9.240;2022-11-09T02:54:54;7.10;;;4.70;;
30181;SDS011;16990;49.056;9.240;2022-11-09T02:57:21;8.50;;;3.92;;
30181;SDS011;16990;49.056;9.240;2022-11-09T02:59:47;9.27;;;4.65;;
30181;SDS011;16990;49.056;9.240;2022-11-09T03:02:14;8.00;;;4.40;;
30181;SDS011;16990;49.056;9.240;2022-11-09T03:04:41;6.97;;;4.28;;
30181;SDS011;16990;49.056;9.240;2022-11-09T03:07:08;8.40;;;3.95;;
30181;SDS011;16990;49.056;9.240;2022-11-09T03:09:35;7.25;;;4.03;;
30181;SDS011;16990;49.056;9.240;2022-11-09T03:12:03;8.48;;;5.30;;
30181;SDS011;16990;49.056;9.240;2022-11-09T03:14:50;8.00;;;4.53;;
30181;SDS011;16990;49.056;9.240;2022-11-09T03:17:16;10.70;;;4.85;;
30181;SDS011;16990;49.056;9.240;2022-11-09T03:19:43;7.63;;;4.95;;
30181;SDS011;16990;49.056;9.240;2022-11-09T03:22:10;7.68;;;4.85;;
30181;SDS011;16990;49.056;9.240;2022-11-09T03:24:37;13.77;;;4.70;;
30181;SDS011;16990;49.056;9.240;2022-11-09T03:27:05;9.63;;;4.68;;
30181;SDS011;16990;49.056;9.240;2022-11-09T03:29:31;6.70;;;4.53;;
30181;SDS011;16990;49.056;9.240;2022-11-09T03:31:58;11.98;;;4.68;;
30181;SDS011;16990;49.056;9.240;2022-11-09T03:34:25;8.25;;;5.50;;
30181;SDS011;16990;49.056;9.240;2022-11-09T03:36:51;8.70;;;5.13;;
30181;SDS011;16990;49.056;9.240;2022-11-09T03:39:18;8.10;;;5.18;;
30181;SDS011;16990;49.056;9.240;2022-11-09T03:41:45;10.20;;;4.95;;
30181;SDS011;16990;49.056;9.240;2022-11-09T03:44:13;9.18;;;5.05;;
30181;SDS011;16990;49.056;9.240;2022-11-09T03:46:39;10.30;;;5.38;;
30181;SDS011;16990;49.056;9.240;2022-11-09T03:49:06;13.50;;;5.57;;
30181;SDS011;16990;49.056;9.240;2022-11-09T03:51:33;8.32;;;5.38;;
30181;SDS011;16990;49.056;9.240;2022-11-09T03:54:00;10.35;;;5.47;;
30181;SDS011;16990;49.056;9.240;2022-11-09T03:56:26;15.00;;;5.25;;
30181;SDS011;16990;49.056;9.240;2022-11-09T03:58:53;10.27;;;4.70;;
30181;SDS011;16990;49.056;9.240;2022-11-09T04:01:21;13.05;;;4.88;;
30181;SDS011;16990;49.056;9.240;2022-11-09T04:03:48;10.23;;;5.40;;
30181;SDS011;16990;49.056;9.240;2022-11-09T04:06:14;10.38;;;5.32;;
30181;SDS011;16990;49.056;9.240;2022-11-09T04:08:41;10.10;;;4.90;;
30181;SDS011;16990;49.056;9.240;2022-11-09T04:11:08;13.05;;;5.93;;
30181;SDS011;16990;49.056;9.240;2022-11-09T04:13:34;9.70;;;5.30;;
30181;SDS011;16990;49.056;9.240;2022-11-09T04:16:01;11.15;;;5.20;;
30181;SDS011;16990;49.056;9.240;2022-11-09T04:18:29;8.82;;;4.38;;
30181;SDS011;16990;49.056;9.240;2022-11-09T04:20:56;13.68;;;5.40;;
30181;SDS011;16990;49.056;9.240;2022-11-09T04:23:23;10.15;;;5.25;;
30181;SDS011;16990;49.056;9.240;2022-11-09T04:25:50;8.95;;;5.10;;
30181;SDS011;16990;49.056;9.240;2022-11-09T04:28:17;9.60;;;4.78;;
30181;SDS011;16990;49.056;9.240;2022-11-09T04:30:44;11.15;;;5.50;;
30181;SDS011;16990;49.056;9.240;2022-11-09T04:33:11;9.60;;;4.88;;
30181;SDS011;16990;49.056;9.240;2022-11-09T04:35:39;11.10;;;5.13;;
30181;SDS011;16990;49.056;9.240;2022-11-09T04:38:06;12.95;;;5.53;;
30181;SDS011;16990;49.056;9.240;2022-11-09T04:40:36;10.50;;;6.70;;
30181;SDS011;16990;49.056;9.240;2022-11-09T04:43:03;14.75;;;7.57;;
30181;SDS011;16990;49.056;9.240;2022-11-09T04:45:31;11.52;;;7.22;;
30181;SDS011;16990;49.056;9.240;2022-11-09T04:47:58;15.93;;;8.05;;
30181;SDS011;16990;49.056;9.240;2022-11-09T04:50:26;15.23;;;7.55;;
30181;SDS011;16990;49.056;9.240;2022-11-09T04:52:55;10.40;;;5.85;;
30181;SDS011;16990;49.056;9.240;2022-11-09T04:55:29;9.68;;;5.85;;
30181;SDS011;16990;49.056;9.240;2022-11-09T04:57:56;12.93;;;6.40;;
30181;SDS011;16990;49.056;9.240;2022-11-09T05:00:23;16.50;;;6.10;;
30181;SDS011;16990;49.056;9.240;2022-11-09T05:02:51;13.38;;;6.82;;
30181;SDS011;16990;49.056;9.240;2022-11-09T05:05:17;12.57;;;7.85;;
30181;SDS011;16990;49.056;9.240;2022-11-09T05:07:44;14.70;;;6.53;;
30181;SDS011;16990;49.056;9.240;2022-11-09T05:10:12;10.02;;;6.55;;
30181;SDS011;16990;49.056;9.240;2022-11-09T05:12:39;16.70;;;8.23;;
30181;SDS011;16990;49.056;9.240;2022-11-09T05:15:06;15.75;;;8.48;;
30181;SDS011;16990;49.056;9.240;2022-11-09T05:17:33;13.18;;;7.45;;
30181;SDS011;16990;49.056;9.240;2022-11-09T05:20:00;8.23;;;6.07;;
30181;SDS011;16990;49.056;9.240;2022-11-09T05:22:27;11.38;;;6.07;;
30181;SDS011;16990;49.056;9.240;2022-11-09T05:25:13;14.15;;;6.25;;
30181;SDS011;16990;49.056;9.240;2022-11-09T05:27:39;9.68;;;5.68;;
30181;SDS011;16990;49.056;9.240;2022-11-09T05:30:07;14.43;;;7.63;;
30181;SDS011;16990;49.056;9.240;2022-11-09T05:32:34;18.40;;;6.97;;
30181;SDS011;16990;49.056;9.240;2022-11-09T05:35:03;9.38;;;5.43;;
30181;SDS011;16990;49.056;9.240;2022-11-09T05:37:30;11.13;;;5.68;;
30181;SDS011;16990;49.056;9.240;2022-11-09T05:39:57;12.85;;;5.50;;
30181;SDS011;16990;49.056;9.240;2022-11-09T05:42:25;12.18;;;6.07;;
30181;SDS011;16990;49.056;9.240;2022-11-09T05:44:52;15.38;;;6.55;;
30181;SDS011;16990;49.056;9.240;2022-11-09T05:47:19;8.10;;;5.53;;
30181;SDS011;16990;49.056;9.240;2022-11-09T05:49:46;16.33;;;5.20;;
30181;SDS011;16990;49.056;9.240;2022-11-09T05:52:13;13.63;;;6.35;;
30181;SDS011;16990;49.056;9.240;2022-11-09T05:54:40;20.17;;;5.97;;
30181;SDS011;16990;49.056;9.240;2022-11-09T05:57:06;8.93;;;5.80;;
30181;SDS011;16990;49.056;9.240;2022-11-09T05:59:34;10.85;;;6.05;;
30181;SDS011;16990;49.056;9.240;2022-11-09T06:02:01;9.75;;;5.63;;
30181;SDS011;16990;49.056;9.240;2022-11-09T06:04:28;10.18;;;5.40;;
30181;SDS011;16990;49.056;9.240;2022-11-09T06:06:54;11.70;;;6.28;;
30181;SDS011;16990;49.056;9.240;2022-11-09T06:09:21;10.60;;;5.63;;
30181;SDS011;16990;49.056;9.240;2022-11-09T06:11:48;12.32;;;6.45;;
30181;SDS011;16990;49.056;9.240;2022-11-09T06:14:15;15.90;;;6.78;;
30181;SDS011;16990;49.056;9.240;2022-11-09T06:16:43;16.10;;;9.05;;
30181;SDS011;16990;49.056;9.240;2022-11-09T06:19:10;19.33;;;12.60;;
30181;SDS011;16990;49.056;9.240;2022-11-09T06:21:36;11.52;;;7.63;;
30181;SDS011;16990;49.056;9.240;2022-11-09T06:24:03;9.98;;;6.88;;
30181;SDS011;16990;49.056;9.240;2022-11-09T06:26:30;22.33;;;10.07;;
30181;SDS011;16990;49.056;9.240;2022-11-09T06:28:57;15.75;;;7.30;;
30181;SDS011;16990;49.056;9.240;2022-11-09T06:31:23;10.23;;;6.30;;
30181;SDS011;16990;49.056;9.240;2022-11-09T06:33:52;10.38;;;5.78;;
30181;SDS011;16990;49.056;9.240;2022-11-09T06:36:18;8.98;;;5.65;;
30181;SDS011;16990;49.056;9.240;2022-11-09T06:38:47;11.05;;;5.75;;
30181;SDS011;16990;49.056;9.240;2022-11-09T06:41:14;7.75;;;5.25;;
30181;SDS011;16990;49.056;9.240;2022-11-09T06:43:40;14.35;;;5.05;;
30181;SDS011;16990;49.056;9.240;2022-11-09T06:46:07;14.27;;;5.50;;
30181;SDS011;16990;49.056;9.240;2022-11-09T06:48:35;7.80;;;4.80;;
30181;SDS011;16990;49.056;9.240;2022-11-09T06:51:04;9.77;;;5.68;;
30181;SDS011;16990;49.056;9.240;2022-11-09T06:53:32;12.38;;;6.60;;
30181;SDS011;16990;49.056;9.240;2022-11-09T06:56:02;9.80;;;5.65;;
30181;SDS011;16990;49.056;9.240;2022-11-09T06:58:30;5.03;;;3.80;;
30181;SDS011;16990;49.056;9.240;2022-11-09T07:00:57;10.90;;;6.70;;
30181;SDS011;16990;49.056;9.240;2022-11-09T07:03:24;9.20;;;7.25;;
30181;SDS011;16990;49.056;9.240;2022-11-09T07:05:51;12.93;;;7.45;;
30181;SDS011;16990;49.056;9.240;2022-11-09T07:08:19;13.52;;;8.60;;
30181;SDS011;16990;49.056;9.240;2022-11-09T07:10:46;12.95;;;8.07;;
30181;SDS011;16990;49.056;9.240;2022-11-09T07:13:12;12.82;;;8.25;;
30181;SDS011;16990;49.056;9.240;2022-11-09T07:15:39;11.30;;;7.05;;
30181;SDS011;16990;49.056;9.240;2022-11-09T07:18:07;13.88;;;7.32;;
30181;SDS011;16990;49.056;9.240;2022-11-09T07:20:36;10.10;;;7.53;;
30181;SDS011;16990;49.056;9.240;2022-11-09T07:23:02;9.73;;;7.18;;
30181;SDS011;16990;49.056;9.240;2022-11-09T07:25:31;11.73;;;8.10;;
30181;SDS011;16990;49.056;9.240;2022-11-09T07:28:01;12.93;;;7.90;;
30181;SDS011;16990;49.056;9.240;2022-11-09T07:30:28;11.45;;;7.32;;
30181;SDS011;16990;49.056;9.240;2022-11-09T07:32:55;9.07;;;6.47;;
30181;SDS011;16990;49.056;9.240;2022-11-09T07:35:24;15.25;;;6.72;;
30181;SDS011;16990;49.056;9.240;2022-11-09T07:37:50;12.40;;;6.25;;
30181;SDS011;16990;49.056;9.240;2022-11-09T07:40:17;10.48;;;5.93;;
30181;SDS011;16990;49.056;9.240;2022-11-09T07:42:46;10.63;;;5.93;;
30181;SDS011;16990;49.056;9.240;2022-11-09T07:45:12;7.88;;;6.13;;
30181;SDS011;16990;49.056;9.240;2022-11-09T07:47:39;10.00;;;5.63;;
30181;SDS011;16990;49.056;9.240;2022-11-09T07:50:06;10.07;;;5.55;;
30181;SDS011;16990;49.056;9.240;2022-11-09T07:52:32;10.38;;;6.03;;
30181;SDS011;16990;49.056;9.240;2022-11-09T07:54:59;7.55;;;5.10;;
30181;SDS011;16990;49.056;9.240;2022-11-09T07:57:26;11.27;;;5.18;;
30181;SDS011;16990;49.056;9.240;2022-11-09T07:59:54;7.80;;;5.00;;
30181;SDS011;16990;49.056;9.240;2022-11-09T08:02:21;10.65;;;5.80;;
30181;SDS011;16990;49.056;9.240;2022-11-09T08:04:48;12.57;;;6.53;;
30181;SDS011;16990;49.056;9.240;2022-11-09T08:07:14;11.90;;;5.80;;
30181;SDS011;16990;49.056;9.240;2022-11-09T08:09:41;8.30;;;6.00;;
30181;SDS011;16990;49.056;9.240;2022-11-09T08:12:08;12.00;;;5.53;;
30181;SDS011;16990;49.056;9.240;2022-11-09T08:14:34;12.93;;;5.90;;
30181;SDS011;16990;49.056;9.240;2022-11-09T08:17:02;12.43;;;5.78;;
30181;SDS011;16990;49.056;9.240;2022-11-09T08:19:29;11.30;;;6.72;;
30181;SDS011;16990;49.056;9.240;2022-11-09T08:21:56;13.25;;;6.85;;
30181;SDS011;16990;49.056;9.240;2022-11-09T08:24:22;10.85;;;6.13;;
30181;SDS011;16990;49.056;9.240;2022-11-09T08:26:49;11.07;;;6.38;;
30181;SDS011;16990;49.056;9.240;2022-11-09T08:29:16;12.43;;;8.43;;
30181;SDS011;16990;49.056;9.240;2022-11-09T08:31:42;14.45;;;8.60;;
30181;SDS011;16990;49.056;9.240;2022-11-09T08:34:11;17.13;;;7.40;;
30181;SDS011;16990;49.056;9.240;2022-11-09T08:36:39;9.73;;;6.32;;
30181;SDS011;16990;49.056;9.240;2022-11-09T08:39:05;12.70;;;6.85;;
30181;SDS011;16990;49.056;9.240;2022-11-09T08:41:32;13.82;;;6.60;;
30181;SDS011;16990;49.056;9.240;2022-11-09T08:43:59;8.85;;;6.22;;
30181;SDS011;16990;49.056;9.240;2022-11-09T08:46:25;8.40;;;5.53;;
30181;SDS011;16990;49.056;9.240;2022-11-09T08:48:52;8.93;;;5.38;;
30181;SDS011;16990;49.056;9.240;2022-11-09T08:51:20;13.75;;;5.13;;
30181;SDS011;16990;49.056;9.240;2022-11-09T08:53:47;12.65;;;5.30;;
30181;SDS011;16990;49.056;9.240;2022-11-09T08:56:14;8.68;;;5.10;;
30181;SDS011;16990;49.056;9.240;2022-11-09T08:58:43;7.90;;;5.20;;
30181;SDS011;16990;49.056;9.240;2022-11-09T09:01:11;11.13;;;5.38;;
30181;SDS011;16990;49.056;9.240;2022-11-09T09:03:38;8.38;;;4.70;;
30181;SDS011;16990;49.056;9.240;2022-11-09T09:06:05;9.18;;;5.50;;
30181;SDS011;16990;49.056;9.240;2022-11-09T09:08:34;7.63;;;5.22;;
30181;SDS011;16990;49.056;9.240;2022-11-09T09:11:01;10.85;;;6.13;;
30181;SDS011;16990;49.056;9.240;2022-11-09T09:13:28;11.70;;;5.97;;
30181;SDS011;16990;49.056;9.240;2022-11-09T09:15:55;17.98;;;6.13;;
30181;SDS011;16990;49.056;9.240;2022-11-09T09:18:21;8.93;;;5.32;;
30181;SDS011;16990;49.056;9.240;2022-11-09T09:20:48;9.35;;;5.80;;
30181;SDS011;16990;49.056;9.240;2022-11-09T09:23:15;11.23;;;5.38;;
30181;SDS011;16990;49.056;9.240;2022-11-09T09:25:43;18.25;;;6.10;;
30181;SDS011;16990;49.056;9.240;2022-11-09T09:28:10;9.85;;;5.53;;
30181;SDS011;16990;49.056;9.240;2022-11-09T09:30:37;14.63;;;4.88;;
30181;SDS011;16990;49.056;9.240;2022-11-09T09:33:03;9.07;;;5.30;;
30181;SDS011;16990;49.056;9.240;2022-11-09T09:35:30;9.32;;;5.05;;
30181;SDS011;16990;49.056;9.240;2022-11-09T09:37:57;10.38;;;5.68;;
30181;SDS011;16990;49.056;9.240;2022-11-09T09:40:24;12.80;;;5.80;;
30181;SDS011;16990;49.056;9.240;2022-11-09T09:42:56;17.48;;;6.57;;
30181;SDS011;16990;49.056;9.240;2022-11-09T09:45:23;7.53;;;5.00;;
30181;SDS011;16990;49.056;9.240;2022-11-09T09:47:55;8.10;;;5.03;;
30181;SDS011;16990;49.056;9.240;2022-11-09T09:50:26;9.27;;;5.40;;
30181;SDS011;16990;49.056;9.240;2022-11-09T09:52:57;8.15;;;4.80;;
30181;SDS011;16990;49.056;9.240;2022-11-09T09:55:28;8.80;;;4.50;;
30181;SDS011;16990;49.056;9.240;2022-11-09T09:58:03;7.50;;;4.00;;
30181;SDS011;16990;49.056;9.240;2022-11-09T10:00:36;7.45;;;3.50;;
30181;SDS011;16990;49.056;9.240;2022-11-09T10:03:04;6.60;;;4.43;;
30181;SDS011;16990;49.056;9.240;2022-11-09T10:05:36;5.82;;;3.53;;
30181;SDS011;16990;49.056;9.240;2022-11-09T10:08:12;7.60;;;4.25;;
30181;SDS011;16990;49.056;9.240;2022-11-09T10:10:48;8.55;;;3.90;;
30181;SDS011;16990;49.056;9.240;2022-11-09T10:13:41;9.82;;;3.78;;
30181;SDS011;16990;49.056;9.240;2022-11-09T10:16:18;8.68;;;3.38;;
30181;SDS011;16990;49.056;9.240;2022-11-09T10:18:59;11.07;;;3.72;;
30181;SDS011;16990;49.056;9.240;2022-11-09T10:21:41;10.27;;;4.07;;
30181;SDS011;16990;49.056;9.240;2022-11-09T10:24:17;9.75;;;3.08;;
30181;SDS011;16990;49.056;9.240;2022-11-09T10:26:53;4.60;;;3.25;;
30181;SDS011;16990;49.056;9.240;2022-11-09T10:29:23;5.53;;;3.47;;
30181;SDS011;16990;49.056;9.240;2022-11-09T10:31:52;6.45;;;3.42;;
30181;SDS011;16990;49.056;9.240;2022-11-09T10:34:21;9.13;;;3.65;;
30181;SDS011;16990;49.056;9.240;2022-11-09T10:36:55;4.50;;;2.63;;
30181;SDS011;16990;49.056;9.240;2022-11-09T10:39:27;7.32;;;2.88;;
30181;SDS011;16990;49.056;9.240;2022-11-09T10:42:04;8.20;;;3.00;;
30181;SDS011;16990;49.056;9.240;2022-11-09T10:44:32;7.15;;;3.42;;
30181;SDS011;16990;49.056;9.240;2022-11-09T10:47:06;9.15;;;3.75;;
30181;SDS011;16990;49.056;9.240;2022-11-09T10:49:35;8.48;;;3.15;;
30181;SDS011;16990;49.056;9.240;2022-11-09T10:52:02;4.95;;;2.70;;
30181;SDS011;16990;49.056;9.240;2022-11-09T10:54:31;8.30;;;2.80;;
30181;SDS011;16990;49.056;9.240;2022-11-09T10:57:07;6.45;;;3.10;;
30181;SDS011;16990;49.056;9.240;2022-11-09T10:59:42;2.85;;;2.28;;
30181;SDS011;16990;49.056;9.240;2022-11-09T11:05:24;6.10;;;2.88;;
30181;SDS011;16990;49.056;9.240;2022-11-09T11:08:19;6.82;;;2.72;;
30181;SDS011;16990;49.056;9.240;2022-11-09T11:10:48;3.95;;;2.75;;
30181;SDS011;16990;49.056;9.240;2022-11-09T11:13:22;7.28;;;2.50;;
30181;SDS011;16990;49.056;9.240;2022-11-09T11:18:19;5.10;;;3.17;;
30181;SDS011;16990;49.056;9.240;2022-11-09T11:21:03;8.88;;;2.55;;
30181;SDS011;16990;49.056;9.240;2022-11-09T11:23:32;6.82;;;2.65;;
30181;SDS011;16990;49.056;9.240;2022-11-09T11:29:00;6.05;;;3.70;;
30181;SDS011;16990;49.056;9.240;2022-11-09T11:31:31;13.80;;;8.07;;
30181;SDS011;16990;49.056;9.240;2022-11-09T11:33:58;36.55;;;18.20;;
30181;SDS011;16990;49.056;9.240;2022-11-09T11:36:31;17.95;;;8.38;;
30181;SDS011;16990;49.056;9.240;2022-11-09T11:39:05;18.70;;;9.85;;
30181;SDS011;16990;49.056;9.240;2022-11-09T11:41:51;16.83;;;7.53;;
30181;SDS011;16990;49.056;9.240;2022-11-09T11:44:41;14.35;;;8.35;;
30181;SDS011;16990;49.056;9.240;2022-11-09T11:47:23;21.27;;;7.70;;
30181;SDS011;16990;49.056;9.240;2022-11-09T11:49:56;10.25;;;5.50;;
30181;SDS011;16990;49.056;9.240;2022-11-09T11:52:36;9.23;;;4.57;;
30181;SDS011;16990;49.056;9.240;2022-11-09T11:55:20;12.00;;;4.70;;
30181;SDS011;16990;49.056;9.240;2022-11-09T11:58:01;11.90;;;5.35;;
30181;SDS011;16990;49.056;9.240;2022-11-09T12:00:44;11.32;;;4.78;;
30181;SDS011;16990;49.056;9.240;2022-11-09T12:03:25;8.90;;;3.60;;
30181;SDS011;16990;49.056;9.240;2022-11-09T12:06:14;4.82;;;2.92;;
30181;SDS011;16990;49.056;9.240;2022-11-09T12:09:04;4.80;;;2.47;;
30181;SDS011;16990;49.056;9.240;2022-11-09T12:11:51;3.92;;;2.47;;
30181;SDS011;16990;49.056;9.240;2022-11-09T12:14:31;4.82;;;2.70;;
30181;SDS011;16990;49.056;9.240;2022-11-09T12:17:10;7.93;;;2.83;;
30181;SDS011;16990;49.056;9.240;2022-11-09T12:19:47;3.72;;;2.60;;
30181;SDS011;16990;49.056;9.240;2022-11-09T12:22:27;3.55;;;2.50;;
30181;SDS011;16990;49.056;9.240;2022-11-09T12:25:01;5.03;;;2.63;;
30181;SDS011;16990;49.056;9.240;2022-11-09T12:27:40;5.50;;;2.58;;
30181;SDS011;16990;49.056;9.240;2022-11-09T12:30:18;4.88;;;2.60;;
30181;SDS011;16990;49.056;9.240;2022-11-09T12:32:49;4.28;;;2.47;;
30181;SDS011;16990;49.056;9.240;2022-11-09T12:35:27;4.10;;;2.50;;
30181;SDS011;16990;49.056;9.240;2022-11-09T12:37:58;3.35;;;2.53;;
30181;SDS011;16990;49.056;9.240;2022-11-09T12:40:29;3.60;;;2.50;;
30181;SDS011;16990;49.056;9.240;2022-11-09T12:43:01;6.93;;;2.45;;
30181;SDS011;16990;49.056;9.240;2022-11-09T12:45:31;3.83;;;2.15;;
30181;SDS011;16990;49.056;9.240;2022-11-09T12:48:00;5.18;;;2.10;;
30181;SDS011;16990;49.056;9.240;2022-11-09T12:50:33;3.17;;;2.28;;
30181;SDS011;16990;49.056;9.240;2022-11-09T12:53:00;7.57;;;2.67;;
30181;SDS011;16990;49.056;9.240;2022-11-09T12:55:32;4.50;;;2.50;;
30181;SDS011;16990;49.056;9.240;2022-11-09T12:58:04;8.55;;;2.70;;
30181;SDS011;16990;49.056;9.240;2022-11-09T13:00:44;9.00;;;3.28;;
30181;SDS011;16990;49.056;9.240;2022-11-09T13:03:21;8.88;;;3.17;;
30181;SDS011;16990;49.056;9.240;2022-11-09T13:06:07;5.78;;;3.08;;
30181;SDS011;16990;49.056;9.240;2022-11-09T13:08:36;5.75;;;2.72;;
30181;SDS011;16990;49.056;9.240;2022-11-09T13:11:08;6.13;;;3.03;;
30181;SDS011;16990;49.056;9.240;2022-11-09T13:13:43;7.07;;;3.38;;
30181;SDS011;16990;49.056;9.240;2022-11-09T13:16:11;13.23;;;3.40;;
30181;SDS011;16990;49.056;9.240;2022-11-09T13:18:58;6.25;;;3.28;;
30181;SDS011;16990;49.056;9.240;2022-11-09T13:21:38;5.80;;;3.13;;
30181;SDS011;16990;49.056;9.240;2022-11-09T13:27:37;6.85;;;3.35;;
30181;SDS011;16990;49.056;9.240;2022-11-09T13:33:15;8.45;;;3.67;;
30181;SDS011;16990;49.056;9.240;2022-11-09T13:36:08;6.18;;;3.33;;
30181;SDS011;16990;49.056;9.240;2022-11-09T13:38:41;8.50;;;3.72;;
30181;SDS011;16990;49.056;9.240;2022-11-09T13:44:15;7.40;;;3.95;;
30181;SDS011;16990;49.056;9.240;2022-11-09T13:46:46;12.07;;;3.85;;
30181;SDS011;16990;49.056;9.240;2022-11-09T13:49:33;7.35;;;4.00;;
30181;SDS011;16990;49.056;9.240;2022-11-09T13:52:21;6.07;;;2.95;;
30181;SDS011;16990;49.056;9.240;2022-11-09T13:55:14;8.30;;;3.90;;
30181;SDS011;16990;49.056;9.240;2022-11-09T13:57:46;7.00;;;3.20;;
30181;SDS011;16990;49.056;9.240;2022-11-09T14:00:14;5.68;;;2.90;;
30181;SDS011;16990;49.056;9.240;2022-11-09T14:05:42;6.80;;;2.92;;
30181;SDS011;16990;49.056;9.240;2022-11-09T14:08:13;7.88;;;3.17;;
30181;SDS011;16990;49.056;9.240;2022-11-09T14:10:52;4.88;;;2.88;;
30181;SDS011;16990;49.056;9.240;2022-11-09T14:13:51;4.55;;;2.78;;
30181;SDS011;16990;49.056;9.240;2022-11-09T14:16:32;5.45;;;3.00;;
30181;SDS011;16990;49.056;9.240;2022-11-09T14:19:09;5.15;;;3.20;;
30181;SDS011;16990;49.056;9.240;2022-11-09T14:21:45;5.07;;;3.08;;
30181;SDS011;16990;49.056;9.240;2022-11-09T14:24:15;8.13;;;4.00;;
30181;SDS011;16990;49.056;9.240;2022-11-09T14:29:51;9.80;;;3.45;;
30181;SDS011;16990;49.056;9.240;2022-11-09T14:32:23;6.47;;;3.67;;
30181;SDS011;16990;49.056;9.240;2022-11-09T14:34:52;6.87;;;3.90;;
30181;SDS011;16990;49.056;9.240;2022-11-09T14:37:19;6.30;;;3.47;;
30181;SDS011;16990;49.056;9.240;2022-11-09T14:39:47;7.70;;;3.88;;
30181;SDS011;16990;49.056;9.240;2022-11-09T14:42:18;9.63;;;4.63;;
30181;SDS011;16990;49.056;9.240;2022-11-09T14:44:46;7.82;;;4.10;;
30181;SDS011;16990;49.056;9.240;2022-11-09T14:47:15;13.20;;;4.57;;
30181;SDS011;16990;49.056;9.240;2022-11-09T14:49:43;7.10;;;4.63;;
30181;SDS011;16990;49.056;9.240;2022-11-09T14:52:11;8.38;;;4.78;;
30181;SDS011;16990;49.056;9.240;2022-11-09T14:54:41;7.60;;;4.38;;
30181;SDS011;16990;49.056;9.240;2022-11-09T14:57:09;8.43;;;5.07;;
30181;SDS011;16990;49.056;9.240;2022-11-09T14:59:40;7.40;;;5.43;;
30181;SDS011;16990;49.056;9.240;2022-11-09T15:02:10;10.73;;;5.97;;
30181;SDS011;16990;49.056;9.240;2022-11-09T15:04:52;10.45;;;5.97;;
30181;SDS011;16990;49.056;9.240;2022-11-09T15:07:20;18.38;;;8.50;;
30181;SDS011;16990;49.056;9.240;2022-11-09T15:09:49;13.38;;;8.63;;
30181;SDS011;16990;49.056;9.240;2022-11-09T15:12:19;19.70;;;9.32;;
30181;SDS011;16990;49.056;9.240;2022-11-09T15:14:49;18.13;;;9.02;;
30181;SDS011;16990;49.056;9.240;2022-11-09T15:17:21;20.15;;;7.70;;
30181;SDS011;16990;49.056;9.240;2022-11-09T15:19:51;10.10;;;7.60;;
30181;SDS011;16990;49.056;9.240;2022-11-09T15:25:23;12.93;;;6.78;;
30181;SDS011;16990;49.056;9.240;2022-11-09T15:28:01;12.43;;;5.55;;
30181;SDS011;16990;49.056;9.240;2022-11-09T15:30:45;9.88;;;4.85;;